sensor_id;sensor_type;location;lat;lon;timestamp;temperature;humidity
41694;DHT22;27377;50.666;9.150;2023-04-23T00:00:15;13.00;99.90
41694;DHT22;27377;50.666;9.150;2023-04-23T00:02:44;13.00;99.90
41694;DHT22;27377;50.666;9.150;2023-04-23T00:05:11;13.00;99.90
41694;DHT22;27377;50.666;9.150;2023-04-23T00:07:37;12.90;99.90
41694;DHT22;27377;50.666;9.150;2023-04-23T00:10:04;12.90;99.90
41694;DHT22;27377;50.666;9.150;2023-04-23T00:12:30;12.90;99.90
41694;DHT22;27377;50.666;9.150;2023-04-23T00:14:56;12.90;99.90
41694;DHT22;27377;50.666;9.150;2023-04-23T00:17:22;12.90;99.90
41694;DHT22;27377;50.666;9.150;2023-04-23T00:19:47;12.90;99.90
41694;DHT22;27377;50.666;9.150;2023-04-23T00:22:13;12.90;99.90
41694;DHT22;27377;50.666;9.150;2023-04-23T00:24:41;12.90;99.90
41694;DHT22;27377;50.666;9.150;2023-04-23T00:27:07;12.90;99.90
41694;DHT22;27377;50.666;9.150;2023-04-23T00:29:32;12.90;99.90
41694;DHT22;27377;50.666;9.150;2023-04-23T00:31:59;12.90;99.90
41694;DHT22;27377;50.666;9.150;2023-04-23T00:34:25;12.90;99.90
41694;DHT22;27377;50.666;9.150;2023-04-23T00:36:50;12.90;99.90
41694;DHT22;27377;50.666;9.150;2023-04-23T00:39:16;12.90;99.90
41694;DHT22;27377;50.666;9.150;2023-04-23T00:41:42;12.90;99.90
41694;DHT22;27377;50.666;9.150;2023-04-23T00:44:08;12.80;99.90
41694;DHT22;27377;50.666;9.150;2023-04-23T00:46:34;12.90;99.90
41694;DHT22;27377;50.666;9.150;2023-04-23T00:49:01;12.80;99.90
41694;DHT22;27377;50.666;9.150;2023-04-23T00:51:27;12.80;99.90
41694;DHT22;27377;50.666;9.150;2023-04-23T00:53:53;12.80;99.90
41694;DHT22;27377;50.666;9.150;2023-04-23T00:56:19;12.80;99.90
41694;DHT22;27377;50.666;9.150;2023-04-23T00:58:46;12.80;99.90
41694;DHT22;27377;50.666;9.150;2023-04-23T01:01:12;12.80;99.90
41694;DHT22;27377;50.666;9.150;2023-04-23T01:03:39;12.80;99.90
41694;DHT22;27377;50.666;9.150;2023-04-23T01:06:07;12.80;99.90
41694;DHT22;27377;50.666;9.150;2023-04-23T01:08:33;12.80;99.90
41694;DHT22;27377;50.666;9.150;2023-04-23T01:10:59;12.80;99.90
41694;DHT22;27377;50.666;9.150;2023-04-23T01:13:26;12.80;99.90
41694;DHT22;27377;50.666;9.150;2023-04-23T01:15:54;12.80;99.90
41694;DHT22;27377;50.666;9.150;2023-04-23T01:18:20;12.80;99.90
41694;DHT22;27377;50.666;9.150;2023-04-23T01:20:47;12.80;99.90
41694;DHT22;27377;50.666;9.150;2023-04-23T01:23:12;12.80;99.90
41694;DHT22;27377;50.666;9.150;2023-04-23T01:25:38;12.70;99.90
41694;DHT22;27377;50.666;9.150;2023-04-23T01:28:05;12.80;99.90
41694;DHT22;27377;50.666;9.150;2023-04-23T01:30:33;12.80;99.90
41694;DHT22;27377;50.666;9.150;2023-04-23T01:32:58;12.80;99.90
41694;DHT22;27377;50.666;9.150;2023-04-23T01:35:25;12.80;99.90
41694;DHT22;27377;50.666;9.150;2023-04-23T01:37:52;12.80;99.90
41694;DHT22;27377;50.666;9.150;2023-04-23T01:40:20;12.70;99.90
41694;DHT22;27377;50.666;9.150;2023-04-23T01:42:46;12.70;99.90
41694;DHT22;27377;50.666;9.150;2023-04-23T01:45:12;12.70;99.90
41694;DHT22;27377;50.666;9.150;2023-04-23T01:47:39;12.70;99.90
41694;DHT22;27377;50.666;9.150;2023-04-23T01:50:05;12.70;99.90
41694;DHT22;27377;50.666;9.150;2023-04-23T01:52:30;12.70;99.90
41694;DHT22;27377;50.666;9.150;2023-04-23T01:54:56;12.70;99.90
41694;DHT22;27377;50.666;9.150;2023-04-23T01:57:21;12.70;99.90
41694;DHT22;27377;50.666;9.150;2023-04-23T02:00:02;12.70;99.90
41694;DHT22;27377;50.666;9.150;2023-04-23T02:02:32;12.70;99.90
41694;DHT22;27377;50.666;9.150;2023-04-23T02:05:00;12.70;99.90
41694;DHT22;27377;50.666;9.150;2023-04-23T02:07:30;12.70;99.90
41694;DHT22;27377;50.666;9.150;2023-04-23T02:09:55;12.70;99.90
41694;DHT22;27377;50.666;9.150;2023-04-23T02:12:21;12.60;99.90
41694;DHT22;27377;50.666;9.150;2023-04-23T02:14:48;12.70;99.90
41694;DHT22;27377;50.666;9.150;2023-04-23T02:17:14;12.60;99.90
41694;DHT22;27377;50.666;9.150;2023-04-23T02:19:40;12.60;99.90
41694;DHT22;27377;50.666;9.150;2023-04-23T02:22:05;12.60;99.90
41694;DHT22;27377;50.666;9.150;2023-04-23T02:24:32;12.60;99.90
41694;DHT22;27377;50.666;9.150;2023-04-23T02:26:57;12.60;99.90
41694;DHT22;27377;50.666;9.150;2023-04-23T02:29:23;12.60;99.90
41694;DHT22;27377;50.666;9.150;2023-04-23T02:31:48;12.60;99.90
41694;DHT22;27377;50.666;9.150;2023-04-23T02:34:14;12.60;99.90
41694;DHT22;27377;50.666;9.150;2023-04-23T02:36:39;12.60;99.90
41694;DHT22;27377;50.666;9.150;2023-04-23T02:39:05;12.50;99.90
41694;DHT22;27377;50.666;9.150;2023-04-23T02:41:30;12.50;99.90
41694;DHT22;27377;50.666;9.150;2023-04-23T02:43:56;12.50;99.90
41694;DHT22;27377;50.666;9.150;2023-04-23T02:46:22;12.50;99.90
41694;DHT22;27377;50.666;9.150;2023-04-23T02:48:47;12.50;99.90
41694;DHT22;27377;50.666;9.150;2023-04-23T02:51:13;12.50;99.90
41694;DHT22;27377;50.666;9.150;2023-04-23T02:53:39;12.50;99.90
41694;DHT22;27377;50.666;9.150;2023-04-23T02:56:05;12.40;99.90
41694;DHT22;27377;50.666;9.150;2023-04-23T02:58:31;12.40;99.90
41694;DHT22;27377;50.666;9.150;2023-04-23T03:00:58;12.40;99.90
41694;DHT22;27377;50.666;9.150;2023-04-23T03:03:27;12.40;99.90
41694;DHT22;27377;50.666;9.150;2023-04-23T03:05:56;12.40;99.90
41694;DHT22;27377;50.666;9.150;2023-04-23T03:08:22;12.40;99.90
41694;DHT22;27377;50.666;9.150;2023-04-23T03:10:47;12.30;99.90
41694;DHT22;27377;50.666;9.150;2023-04-23T03:13:13;12.30;99.90
41694;DHT22;27377;50.666;9.150;2023-04-23T03:15:39;12.30;99.90
41694;DHT22;27377;50.666;9.150;2023-04-23T03:18:05;12.30;99.90
41694;DHT22;27377;50.666;9.150;2023-04-23T03:20:33;12.30;99.90
41694;DHT22;27377;50.666;9.150;2023-04-23T03:22:58;12.20;99.90
41694;DHT22;27377;50.666;9.150;2023-04-23T03:25:24;12.20;99.90
41694;DHT22;27377;50.666;9.150;2023-04-23T03:27:51;12.20;99.90
41694;DHT22;27377;50.666;9.150;2023-04-23T03:30:16;12.20;99.90
41694;DHT22;27377;50.666;9.150;2023-04-23T03:32:42;12.20;99.90
41694;DHT22;27377;50.666;9.150;2023-04-23T03:35:08;12.20;99.90
41694;DHT22;27377;50.666;9.150;2023-04-23T03:37:34;12.20;99.90
41694;DHT22;27377;50.666;9.150;2023-04-23T03:39:59;12.10;99.90
41694;DHT22;27377;50.666;9.150;2023-04-23T03:42:27;12.10;99.90
41694;DHT22;27377;50.666;9.150;2023-04-23T03:44:53;12.10;99.90
41694;DHT22;27377;50.666;9.150;2023-04-23T03:47:18;12.10;99.90
41694;DHT22;27377;50.666;9.150;2023-04-23T03:49:44;12.10;99.90
41694;DHT22;27377;50.666;9.150;2023-04-23T03:52:09;12.10;99.90
41694;DHT22;27377;50.666;9.150;2023-04-23T03:54:35;12.10;99.90
41694;DHT22;27377;50.666;9.150;2023-04-23T03:57:00;12.10;99.90
41694;DHT22;27377;50.666;9.150;2023-04-23T03:59:26;12.00;99.90
41694;DHT22;27377;50.666;9.150;2023-04-23T04:01:52;12.10;99.90
41694;DHT22;27377;50.666;9.150;2023-04-23T04:04:17;12.10;99.90
41694;DHT22;27377;50.666;9.150;2023-04-23T04:06:43;12.00;99.90
41694;DHT22;27377;50.666;9.150;2023-04-23T04:09:09;12.10;99.90
41694;DHT22;27377;50.666;9.150;2023-04-23T04:11:34;12.00;99.90
41694;DHT22;27377;50.666;9.150;2023-04-23T04:14:00;12.00;99.90
41694;DHT22;27377;50.666;9.150;2023-04-23T04:16:26;12.00;99.90
41694;DHT22;27377;50.666;9.150;2023-04-23T04:18:52;12.00;99.90
41694;DHT22;27377;50.666;9.150;2023-04-23T04:21:17;12.00;99.90
41694;DHT22;27377;50.666;9.150;2023-04-23T04:23:44;12.00;99.90
41694;DHT22;27377;50.666;9.150;2023-04-23T04:26:10;12.00;99.90
41694;DHT22;27377;50.666;9.150;2023-04-23T04:28:36;12.00;99.90
41694;DHT22;27377;50.666;9.150;2023-04-23T04:31:05;12.00;99.90
41694;DHT22;27377;50.666;9.150;2023-04-23T04:33:31;12.00;99.90
41694;DHT22;27377;50.666;9.150;2023-04-23T04:35:57;12.00;99.90
41694;DHT22;27377;50.666;9.150;2023-04-23T04:38:24;11.90;99.90
41694;DHT22;27377;50.666;9.150;2023-04-23T04:40:50;11.90;99.90
41694;DHT22;27377;50.666;9.150;2023-04-23T04:43:15;11.90;99.90
41694;DHT22;27377;50.666;9.150;2023-04-23T04:45:41;11.90;99.90
41694;DHT22;27377;50.666;9.150;2023-04-23T04:48:07;11.90;99.90
41694;DHT22;27377;50.666;9.150;2023-04-23T04:50:33;11.90;99.90
41694;DHT22;27377;50.666;9.150;2023-04-23T04:52:58;11.90;99.90
41694;DHT22;27377;50.666;9.150;2023-04-23T04:55:24;11.90;99.90
41694;DHT22;27377;50.666;9.150;2023-04-23T04:57:51;11.90;99.90
41694;DHT22;27377;50.666;9.150;2023-04-23T05:00:22;11.90;99.90
41694;DHT22;27377;50.666;9.150;2023-04-23T05:02:51;11.90;99.90
41694;DHT22;27377;50.666;9.150;2023-04-23T05:05:18;11.80;99.90
41694;DHT22;27377;50.666;9.150;2023-04-23T05:07:44;11.80;99.90
41694;DHT22;27377;50.666;9.150;2023-04-23T05:10:10;11.80;99.90
41694;DHT22;27377;50.666;9.150;2023-04-23T05:12:35;11.80;99.90
41694;DHT22;27377;50.666;9.150;2023-04-23T05:15:01;11.80;99.90
41694;DHT22;27377;50.666;9.150;2023-04-23T05:17:28;11.80;99.90
41694;DHT22;27377;50.666;9.150;2023-04-23T05:19:54;11.80;99.90
41694;DHT22;27377;50.666;9.150;2023-04-23T05:22:19;11.80;99.90
41694;DHT22;27377;50.666;9.150;2023-04-23T05:24:45;11.80;99.90
41694;DHT22;27377;50.666;9.150;2023-04-23T05:27:11;11.80;99.90
41694;DHT22;27377;50.666;9.150;2023-04-23T05:29:36;11.80;99.90
41694;DHT22;27377;50.666;9.150;2023-04-23T05:32:02;11.90;99.90
41694;DHT22;27377;50.666;9.150;2023-04-23T05:34:28;11.80;99.90
41694;DHT22;27377;50.666;9.150;2023-04-23T05:36:56;11.80;99.90
41694;DHT22;27377;50.666;9.150;2023-04-23T05:39:22;11.80;99.90
41694;DHT22;27377;50.666;9.150;2023-04-23T05:41:50;11.90;99.90
41694;DHT22;27377;50.666;9.150;2023-04-23T05:44:16;11.90;99.90
41694;DHT22;27377;50.666;9.150;2023-04-23T05:46:41;11.90;99.90
41694;DHT22;27377;50.666;9.150;2023-04-23T05:49:07;11.90;99.90
41694;DHT22;27377;50.666;9.150;2023-04-23T05:51:32;11.90;99.90
41694;DHT22;27377;50.666;9.150;2023-04-23T05:53:58;11.90;99.90
41694;DHT22;27377;50.666;9.150;2023-04-23T05:56:24;11.90;99.90
41694;DHT22;27377;50.666;9.150;2023-04-23T05:58:49;11.90;99.90
41694;DHT22;27377;50.666;9.150;2023-04-23T06:01:15;11.90;99.90
41694;DHT22;27377;50.666;9.150;2023-04-23T06:03:44;11.90;99.90
41694;DHT22;27377;50.666;9.150;2023-04-23T06:06:13;12.00;99.90
41694;DHT22;27377;50.666;9.150;2023-04-23T06:08:41;12.00;99.90
41694;DHT22;27377;50.666;9.150;2023-04-23T06:11:07;12.00;99.90
41694;DHT22;27377;50.666;9.150;2023-04-23T06:13:32;12.00;99.90
41694;DHT22;27377;50.666;9.150;2023-04-23T06:16:01;12.00;99.90
41694;DHT22;27377;50.666;9.150;2023-04-23T06:18:26;12.10;99.90
41694;DHT22;27377;50.666;9.150;2023-04-23T06:20:52;12.10;99.90
41694;DHT22;27377;50.666;9.150;2023-04-23T06:23:18;12.10;99.90
41694;DHT22;27377;50.666;9.150;2023-04-23T06:25:43;12.10;99.90
41694;DHT22;27377;50.666;9.150;2023-04-23T06:28:09;12.10;99.90
41694;DHT22;27377;50.666;9.150;2023-04-23T06:30:34;12.10;99.90
41694;DHT22;27377;50.666;9.150;2023-04-23T06:33:00;12.20;99.90
41694;DHT22;27377;50.666;9.150;2023-04-23T06:35:26;12.20;99.90
41694;DHT22;27377;50.666;9.150;2023-04-23T06:37:51;12.20;99.90
41694;DHT22;27377;50.666;9.150;2023-04-23T06:40:17;12.20;99.90
41694;DHT22;27377;50.666;9.150;2023-04-23T06:42:42;12.20;99.90
41694;DHT22;27377;50.666;9.150;2023-04-23T06:45:10;12.30;99.90
41694;DHT22;27377;50.666;9.150;2023-04-23T06:47:35;12.30;99.90
41694;DHT22;27377;50.666;9.150;2023-04-23T06:50:01;12.30;99.90
41694;DHT22;27377;50.666;9.150;2023-04-23T06:52:26;12.30;99.90
41694;DHT22;27377;50.666;9.150;2023-04-23T06:54:52;12.30;99.90
41694;DHT22;27377;50.666;9.150;2023-04-23T06:57:17;12.30;99.90
41694;DHT22;27377;50.666;9.150;2023-04-23T06:59:43;12.40;99.90
41694;DHT22;27377;50.666;9.150;2023-04-23T07:02:09;12.40;99.90
41694;DHT22;27377;50.666;9.150;2023-04-23T07:04:34;12.40;99.90
41694;DHT22;27377;50.666;9.150;2023-04-23T07:07:00;12.40;99.90
41694;DHT22;27377;50.666;9.150;2023-04-23T07:09:27;12.50;99.90
41694;DHT22;27377;50.666;9.150;2023-04-23T07:11:53;12.40;99.90
41694;DHT22;27377;50.666;9.150;2023-04-23T07:14:18;12.40;99.90
41694;DHT22;27377;50.666;9.150;2023-04-23T07:16:44;12.50;99.90
41694;DHT22;27377;50.666;9.150;2023-04-23T07:19:09;12.50;99.90
41694;DHT22;27377;50.666;9.150;2023-04-23T07:21:35;12.50;99.90
41694;DHT22;27377;50.666;9.150;2023-04-23T07:24:00;12.50;99.90
41694;DHT22;27377;50.666;9.150;2023-04-23T07:26:32;12.50;99.90
41694;DHT22;27377;50.666;9.150;2023-04-23T07:28:58;12.50;99.90
41694;DHT22;27377;50.666;9.150;2023-04-23T07:31:23;12.50;99.90
41694;DHT22;27377;50.666;9.150;2023-04-23T07:33:49;12.50;99.90
41694;DHT22;27377;50.666;9.150;2023-04-23T07:36:15;12.50;99.90
41694;DHT22;27377;50.666;9.150;2023-04-23T07:38:41;12.50;99.90
41694;DHT22;27377;50.666;9.150;2023-04-23T07:41:07;12.50;99.90
41694;DHT22;27377;50.666;9.150;2023-04-23T07:43:32;12.50;99.90
41694;DHT22;27377;50.666;9.150;2023-04-23T07:45:58;12.50;99.90
41694;DHT22;27377;50.666;9.150;2023-04-23T07:48:23;12.60;99.90
41694;DHT22;27377;50.666;9.150;2023-04-23T07:50:49;12.60;99.90
41694;DHT22;27377;50.666;9.150;2023-04-23T07:53:15;12.60;99.90
41694;DHT22;27377;50.666;9.150;2023-04-23T07:55:41;12.60;99.90
41694;DHT22;27377;50.666;9.150;2023-04-23T07:58:06;12.60;99.90
41694;DHT22;27377;50.666;9.150;2023-04-23T08:00:32;12.60;99.90
41694;DHT22;27377;50.666;9.150;2023-04-23T08:02:58;12.60;99.90
41694;DHT22;27377;50.666;9.150;2023-04-23T08:05:24;12.60;99.90
41694;DHT22;27377;50.666;9.150;2023-04-23T08:07:51;12.60;99.90
41694;DHT22;27377;50.666;9.150;2023-04-23T08:10:17;12.70;99.90
41694;DHT22;27377;50.666;9.150;2023-04-23T08:12:43;12.70;99.90
41694;DHT22;27377;50.666;9.150;2023-04-23T08:15:09;12.70;99.90
41694;DHT22;27377;50.666;9.150;2023-04-23T08:17:35;12.60;99.90
41694;DHT22;27377;50.666;9.150;2023-04-23T08:20:04;12.60;99.90
41694;DHT22;27377;50.666;9.150;2023-04-23T08:22:31;12.60;99.90
41694;DHT22;27377;50.666;9.150;2023-04-23T08:24:57;12.70;99.90
41694;DHT22;27377;50.666;9.150;2023-04-23T08:27:23;12.80;99.90
41694;DHT22;27377;50.666;9.150;2023-04-23T08:29:49;12.80;99.90
41694;DHT22;27377;50.666;9.150;2023-04-23T08:32:18;12.80;99.90
41694;DHT22;27377;50.666;9.150;2023-04-23T08:34:44;12.80;99.90
41694;DHT22;27377;50.666;9.150;2023-04-23T08:37:12;12.90;99.90
41694;DHT22;27377;50.666;9.150;2023-04-23T08:39:44;12.90;99.90
41694;DHT22;27377;50.666;9.150;2023-04-23T08:42:18;12.90;99.90
41694;DHT22;27377;50.666;9.150;2023-04-23T08:44:46;13.00;99.90
41694;DHT22;27377;50.666;9.150;2023-04-23T08:47:17;13.00;99.90
41694;DHT22;27377;50.666;9.150;2023-04-23T08:49:44;13.00;99.90
41694;DHT22;27377;50.666;9.150;2023-04-23T08:52:16;13.00;99.90
41694;DHT22;27377;50.666;9.150;2023-04-23T08:54:52;12.90;99.90
41694;DHT22;27377;50.666;9.150;2023-04-23T08:57:18;12.90;99.90
41694;DHT22;27377;50.666;9.150;2023-04-23T08:59:45;12.90;99.90
41694;DHT22;27377;50.666;9.150;2023-04-23T09:02:12;13.00;99.90
41694;DHT22;27377;50.666;9.150;2023-04-23T09:04:40;13.00;99.90
41694;DHT22;27377;50.666;9.150;2023-04-23T09:07:06;13.00;99.90
41694;DHT22;27377;50.666;9.150;2023-04-23T09:09:43;13.00;99.90
41694;DHT22;27377;50.666;9.150;2023-04-23T09:12:09;13.00;99.90
41694;DHT22;27377;50.666;9.150;2023-04-23T09:14:36;13.00;99.90
41694;DHT22;27377;50.666;9.150;2023-04-23T09:17:04;13.10;99.90
41694;DHT22;27377;50.666;9.150;2023-04-23T09:19:31;13.10;99.90
41694;DHT22;27377;50.666;9.150;2023-04-23T09:21:57;13.10;99.90
41694;DHT22;27377;50.666;9.150;2023-04-23T09:24:25;13.10;99.90
41694;DHT22;27377;50.666;9.150;2023-04-23T09:26:51;13.10;99.90
41694;DHT22;27377;50.666;9.150;2023-04-23T09:29:22;13.20;99.90
41694;DHT22;27377;50.666;9.150;2023-04-23T09:31:49;13.20;99.90
41694;DHT22;27377;50.666;9.150;2023-04-23T09:34:23;13.20;99.90
41694;DHT22;27377;50.666;9.150;2023-04-23T09:36:51;13.30;99.90
41694;DHT22;27377;50.666;9.150;2023-04-23T09:39:18;13.30;99.90
41694;DHT22;27377;50.666;9.150;2023-04-23T09:41:44;13.30;99.90
41694;DHT22;27377;50.666;9.150;2023-04-23T09:44:20;13.40;99.90
41694;DHT22;27377;50.666;9.150;2023-04-23T09:46:49;13.50;99.90
41694;DHT22;27377;50.666;9.150;2023-04-23T09:49:15;13.50;99.90
41694;DHT22;27377;50.666;9.150;2023-04-23T09:51:46;13.50;99.90
41694;DHT22;27377;50.666;9.150;2023-04-23T09:54:16;13.60;99.90
41694;DHT22;27377;50.666;9.150;2023-04-23T09:56:43;13.60;99.90
41694;DHT22;27377;50.666;9.150;2023-04-23T09:59:26;13.60;99.90
41694;DHT22;27377;50.666;9.150;2023-04-23T10:01:52;13.70;99.90
41694;DHT22;27377;50.666;9.150;2023-04-23T10:04:19;13.70;99.90
41694;DHT22;27377;50.666;9.150;2023-04-23T10:06:47;13.70;99.90
41694;DHT22;27377;50.666;9.150;2023-04-23T10:09:12;13.70;99.90
41694;DHT22;27377;50.666;9.150;2023-04-23T10:11:39;13.70;99.90
41694;DHT22;27377;50.666;9.150;2023-04-23T10:14:05;13.70;99.90
41694;DHT22;27377;50.666;9.150;2023-04-23T10:16:32;13.80;99.90
41694;DHT22;27377;50.666;9.150;2023-04-23T10:19:00;13.90;99.90
41694;DHT22;27377;50.666;9.150;2023-04-23T10:21:28;13.80;99.90
41694;DHT22;27377;50.666;9.150;2023-04-23T10:23:55;13.90;99.90
41694;DHT22;27377;50.666;9.150;2023-04-23T10:26:23;13.90;99.90
41694;DHT22;27377;50.666;9.150;2023-04-23T10:28:53;13.90;99.90
41694;DHT22;27377;50.666;9.150;2023-04-23T10:31:19;13.90;99.90
41694;DHT22;27377;50.666;9.150;2023-04-23T10:33:47;13.90;99.90
41694;DHT22;27377;50.666;9.150;2023-04-23T10:36:13;14.00;99.90
41694;DHT22;27377;50.666;9.150;2023-04-23T10:38:39;13.90;99.90
41694;DHT22;27377;50.666;9.150;2023-04-23T10:41:07;13.90;99.90
41694;DHT22;27377;50.666;9.150;2023-04-23T10:43:34;14.00;99.90
41694;DHT22;27377;50.666;9.150;2023-04-23T10:46:00;13.90;99.90
41694;DHT22;27377;50.666;9.150;2023-04-23T10:48:28;13.90;99.90
41694;DHT22;27377;50.666;9.150;2023-04-23T10:50:58;13.90;99.90
41694;DHT22;27377;50.666;9.150;2023-04-23T10:53:24;14.00;99.90
41694;DHT22;27377;50.666;9.150;2023-04-23T10:56:06;14.00;99.90
41694;DHT22;27377;50.666;9.150;2023-04-23T10:58:49;14.00;99.90
41694;DHT22;27377;50.666;9.150;2023-04-23T11:01:16;14.10;99.90
41694;DHT22;27377;50.666;9.150;2023-04-23T11:03:43;14.10;99.90
41694;DHT22;27377;50.666;9.150;2023-04-23T11:06:12;14.20;99.90
41694;DHT22;27377;50.666;9.150;2023-04-23T11:08:50;14.20;99.90
41694;DHT22;27377;50.666;9.150;2023-04-23T11:11:17;14.20;99.90
41694;DHT22;27377;50.666;9.150;2023-04-23T11:13:52;14.30;99.90
41694;DHT22;27377;50.666;9.150;2023-04-23T11:16:22;14.30;99.90
41694;DHT22;27377;50.666;9.150;2023-04-23T11:18:59;14.40;99.90
41694;DHT22;27377;50.666;9.150;2023-04-23T11:22:05;14.40;99.90
41694;DHT22;27377;50.666;9.150;2023-04-23T11:24:39;14.50;99.90
41694;DHT22;27377;50.666;9.150;2023-04-23T11:27:13;14.50;99.90
41694;DHT22;27377;50.666;9.150;2023-04-23T11:29:41;14.50;99.90
41694;DHT22;27377;50.666;9.150;2023-04-23T11:32:08;14.50;99.90
41694;DHT22;27377;50.666;9.150;2023-04-23T11:34:42;14.50;99.90
41694;DHT22;27377;50.666;9.150;2023-04-23T11:37:15;14.50;99.90
41694;DHT22;27377;50.666;9.150;2023-04-23T11:39:45;14.60;99.90
41694;DHT22;27377;50.666;9.150;2023-04-23T11:42:16;14.60;99.90
41694;DHT22;27377;50.666;9.150;2023-04-23T11:44:42;14.60;99.90
41694;DHT22;27377;50.666;9.150;2023-04-23T11:47:13;14.60;99.90
41694;DHT22;27377;50.666;9.150;2023-04-23T11:49:40;14.60;99.90
41694;DHT22;27377;50.666;9.150;2023-04-23T11:52:10;14.60;99.90
41694;DHT22;27377;50.666;9.150;2023-04-23T11:54:38;14.70;99.90
41694;DHT22;27377;50.666;9.150;2023-04-23T11:57:04;14.70;99.90
41694;DHT22;27377;50.666;9.150;2023-04-23T11:59:30;14.70;99.90
41694;DHT22;27377;50.666;9.150;2023-04-23T12:01:57;14.70;99.90
41694;DHT22;27377;50.666;9.150;2023-04-23T12:04:28;14.70;99.90
41694;DHT22;27377;50.666;9.150;2023-04-23T12:06:55;14.70;99.90
41694;DHT22;27377;50.666;9.150;2023-04-23T12:09:23;14.70;99.90
41694;DHT22;27377;50.666;9.150;2023-04-23T12:11:49;14.70;99.90
41694;DHT22;27377;50.666;9.150;2023-04-23T12:14:19;14.70;99.90
41694;DHT22;27377;50.666;9.150;2023-04-23T12:16:48;14.70;99.90
41694;DHT22;27377;50.666;9.150;2023-04-23T12:19:28;14.70;99.90
41694;DHT22;27377;50.666;9.150;2023-04-23T12:21:56;14.70;99.90
41694;DHT22;27377;50.666;9.150;2023-04-23T12:24:23;14.70;99.90
41694;DHT22;27377;50.666;9.150;2023-04-23T12:26:59;14.70;99.90
41694;DHT22;27377;50.666;9.150;2023-04-23T12:29:29;14.70;99.90
41694;DHT22;27377;50.666;9.150;2023-04-23T12:31:58;14.80;99.90
41694;DHT22;27377;50.666;9.150;2023-04-23T12:34:24;14.80;99.90
41694;DHT22;27377;50.666;9.150;2023-04-23T12:36:51;14.80;99.90
41694;DHT22;27377;50.666;9.150;2023-04-23T12:39:28;14.80;99.90
41694;DHT22;27377;50.666;9.150;2023-04-23T12:42:00;14.80;99.90
41694;DHT22;27377;50.666;9.150;2023-04-23T12:44:27;14.80;99.90
41694;DHT22;27377;50.666;9.150;2023-04-23T12:47:04;14.80;99.90
41694;DHT22;27377;50.666;9.150;2023-04-23T12:49:31;14.80;99.90
41694;DHT22;27377;50.666;9.150;2023-04-23T12:51:59;14.90;99.90
41694;DHT22;27377;50.666;9.150;2023-04-23T12:54:36;14.90;99.90
41694;DHT22;27377;50.666;9.150;2023-04-23T12:57:06;14.90;99.90
41694;DHT22;27377;50.666;9.150;2023-04-23T12:59:32;14.90;99.90
41694;DHT22;27377;50.666;9.150;2023-04-23T13:01:59;14.90;99.90
41694;DHT22;27377;50.666;9.150;2023-04-23T13:04:27;15.00;99.90
41694;DHT22;27377;50.666;9.150;2023-04-23T13:06:53;15.00;99.90
41694;DHT22;27377;50.666;9.150;2023-04-23T13:09:19;15.00;99.90
41694;DHT22;27377;50.666;9.150;2023-04-23T13:11:46;15.00;99.90
41694;DHT22;27377;50.666;9.150;2023-04-23T13:14:14;15.00;99.90
41694;DHT22;27377;50.666;9.150;2023-04-23T13:16:41;15.00;99.90
41694;DHT22;27377;50.666;9.150;2023-04-23T13:19:07;15.00;99.90
41694;DHT22;27377;50.666;9.150;2023-04-23T13:21:33;15.00;99.90
41694;DHT22;27377;50.666;9.150;2023-04-23T13:23:59;15.10;99.90
41694;DHT22;27377;50.666;9.150;2023-04-23T13:26:26;15.10;99.90
41694;DHT22;27377;50.666;9.150;2023-04-23T13:28:55;15.10;99.90
41694;DHT22;27377;50.666;9.150;2023-04-23T13:31:21;15.10;99.90
41694;DHT22;27377;50.666;9.150;2023-04-23T13:33:46;15.10;99.90
41694;DHT22;27377;50.666;9.150;2023-04-23T13:36:12;15.10;99.90
41694;DHT22;27377;50.666;9.150;2023-04-23T13:38:37;15.10;99.90
41694;DHT22;27377;50.666;9.150;2023-04-23T13:41:03;15.20;99.90
41694;DHT22;27377;50.666;9.150;2023-04-23T13:43:29;15.10;99.90
41694;DHT22;27377;50.666;9.150;2023-04-23T13:45:55;15.20;99.90
41694;DHT22;27377;50.666;9.150;2023-04-23T13:48:22;15.30;99.90
41694;DHT22;27377;50.666;9.150;2023-04-23T13:50:53;15.30;99.90
41694;DHT22;27377;50.666;9.150;2023-04-23T13:53:23;15.40;99.90
41694;DHT22;27377;50.666;9.150;2023-04-23T13:55:49;15.40;99.90
41694;DHT22;27377;50.666;9.150;2023-04-23T13:58:15;15.50;99.90
41694;DHT22;27377;50.666;9.150;2023-04-23T14:00:42;15.50;99.90
41694;DHT22;27377;50.666;9.150;2023-04-23T14:03:08;15.50;99.90
41694;DHT22;27377;50.666;9.150;2023-04-23T14:05:33;15.50;99.90
41694;DHT22;27377;50.666;9.150;2023-04-23T14:08:00;15.50;99.90
41694;DHT22;27377;50.666;9.150;2023-04-23T14:10:26;15.60;99.90
41694;DHT22;27377;50.666;9.150;2023-04-23T14:12:52;15.60;99.90
41694;DHT22;27377;50.666;9.150;2023-04-23T14:15:18;15.60;99.90
41694;DHT22;27377;50.666;9.150;2023-04-23T14:17:46;15.60;99.90
41694;DHT22;27377;50.666;9.150;2023-04-23T14:20:12;15.60;99.90
41694;DHT22;27377;50.666;9.150;2023-04-23T14:22:42;15.60;99.90
41694;DHT22;27377;50.666;9.150;2023-04-23T14:25:14;15.60;99.90
41694;DHT22;27377;50.666;9.150;2023-04-23T14:27:45;15.60;99.90
41694;DHT22;27377;50.666;9.150;2023-04-23T14:30:20;15.60;99.90
41694;DHT22;27377;50.666;9.150;2023-04-23T14:32:46;15.70;99.90
41694;DHT22;27377;50.666;9.150;2023-04-23T14:35:12;15.70;99.90
41694;DHT22;27377;50.666;9.150;2023-04-23T14:37:39;15.70;99.90
41694;DHT22;27377;50.666;9.150;2023-04-23T14:40:08;15.70;99.90
41694;DHT22;27377;50.666;9.150;2023-04-23T14:42:34;15.70;99.90
41694;DHT22;27377;50.666;9.150;2023-04-23T14:45:01;15.70;99.90
41694;DHT22;27377;50.666;9.150;2023-04-23T14:47:26;15.60;99.90
41694;DHT22;27377;50.666;9.150;2023-04-23T14:49:52;15.60;99.90
41694;DHT22;27377;50.666;9.150;2023-04-23T14:52:18;15.70;99.90
41694;DHT22;27377;50.666;9.150;2023-04-23T14:54:44;15.70;99.90
41694;DHT22;27377;50.666;9.150;2023-04-23T14:57:09;15.70;99.90
41694;DHT22;27377;50.666;9.150;2023-04-23T14:59:35;15.70;99.90
41694;DHT22;27377;50.666;9.150;2023-04-23T15:02:00;15.70;99.90
41694;DHT22;27377;50.666;9.150;2023-04-23T15:04:26;15.70;99.90
41694;DHT22;27377;50.666;9.150;2023-04-23T15:06:51;15.70;99.90
41694;DHT22;27377;50.666;9.150;2023-04-23T15:09:17;15.70;99.90
41694;DHT22;27377;50.666;9.150;2023-04-23T15:11:43;15.70;99.90
41694;DHT22;27377;50.666;9.150;2023-04-23T15:14:24;15.70;99.90
41694;DHT22;27377;50.666;9.150;2023-04-23T15:16:50;15.70;99.90
41694;DHT22;27377;50.666;9.150;2023-04-23T15:19:17;15.70;99.90
41694;DHT22;27377;50.666;9.150;2023-04-23T15:21:43;15.70;99.90
41694;DHT22;27377;50.666;9.150;2023-04-23T15:24:08;15.70;99.90
41694;DHT22;27377;50.666;9.150;2023-04-23T15:26:35;15.70;99.90
41694;DHT22;27377;50.666;9.150;2023-04-23T15:29:01;15.70;99.90